Terminal Aerodrome Forecast
Issued by NWS Bismarck, ND

Home | Current Version | Previous Version | Graphics & Text | Print | Product List | Glossary On
Versions: 1 2 3 4 5 6 7 8 9 10 11 12 13 14 15 16
000
FTUS43 KBIS 190200 AAA
TAFBIS
TAF AMD
KBIS 190213Z 1902/1924 08016KT P6SM VCSH BKN110
     FM190700 27015KT P6SM SCT200
     FM191600 28015G25KT P6SM SCT100=

USA.gov is the U.S. government's official web portal to all federal, state and local government web resources and services.